sensor_id;sensor_type;location;lat;lon;timestamp;temperature;humidity
15967;DHT22;15175;48.154;11.534;2023-02-01T00:00:59;4.60;99.90
15967;DHT22;15175;48.154;11.534;2023-02-01T00:03:26;4.60;99.90
15967;DHT22;15175;48.154;11.534;2023-02-01T00:05:57;4.60;99.90
15967;DHT22;15175;48.154;11.534;2023-02-01T00:08:24;4.60;99.90
15967;DHT22;15175;48.154;11.534;2023-02-01T00:10:59;4.70;99.90
15967;DHT22;15175;48.154;11.534;2023-02-01T00:13:28;4.70;99.90
15967;DHT22;15175;48.154;11.534;2023-02-01T00:16:02;4.70;99.90
15967;DHT22;15175;48.154;11.534;2023-02-01T00:18:30;4.70;99.90
15967;DHT22;15175;48.154;11.534;2023-02-01T00:20:57;4.70;99.90
15967;DHT22;15175;48.154;11.534;2023-02-01T00:23:24;4.70;99.90
15967;DHT22;15175;48.154;11.534;2023-02-01T00:25:51;4.70;99.90
15967;DHT22;15175;48.154;11.534;2023-02-01T00:28:20;4.70;99.90
15967;DHT22;15175;48.154;11.534;2023-02-01T00:30:47;4.70;99.90
15967;DHT22;15175;48.154;11.534;2023-02-01T00:33:22;4.70;99.90
15967;DHT22;15175;48.154;11.534;2023-02-01T00:35:49;4.70;99.90
15967;DHT22;15175;48.154;11.534;2023-02-01T00:38:17;4.70;99.90
15967;DHT22;15175;48.154;11.534;2023-02-01T00:40:44;4.70;99.90
15967;DHT22;15175;48.154;11.534;2023-02-01T00:43:11;4.70;99.90
15967;DHT22;15175;48.154;11.534;2023-02-01T00:45:39;4.70;99.90
15967;DHT22;15175;48.154;11.534;2023-02-01T00:48:06;4.70;99.90
15967;DHT22;15175;48.154;11.534;2023-02-01T00:50:33;4.70;99.90
15967;DHT22;15175;48.154;11.534;2023-02-01T00:53:00;4.70;99.90
15967;DHT22;15175;48.154;11.534;2023-02-01T00:55:27;4.50;99.90
15967;DHT22;15175;48.154;11.534;2023-02-01T00:57:54;4.60;99.90
15967;DHT22;15175;48.154;11.534;2023-02-01T01:00:21;4.60;99.90
15967;DHT22;15175;48.154;11.534;2023-02-01T01:02:50;4.60;99.90
15967;DHT22;15175;48.154;11.534;2023-02-01T01:05:17;4.50;99.90
15967;DHT22;15175;48.154;11.534;2023-02-01T01:07:44;4.50;99.90
15967;DHT22;15175;48.154;11.534;2023-02-01T01:10:12;4.40;99.90
15967;DHT22;15175;48.154;11.534;2023-02-01T01:12:39;4.40;99.90
15967;DHT22;15175;48.154;11.534;2023-02-01T01:15:07;4.40;99.90
15967;DHT22;15175;48.154;11.534;2023-02-01T01:17:34;4.40;99.90
15967;DHT22;15175;48.154;11.534;2023-02-01T01:20:03;4.40;99.90
15967;DHT22;15175;48.154;11.534;2023-02-01T01:22:30;4.30;99.90
15967;DHT22;15175;48.154;11.534;2023-02-01T01:24:57;4.30;99.90
15967;DHT22;15175;48.154;11.534;2023-02-01T01:27:24;4.40;99.90
15967;DHT22;15175;48.154;11.534;2023-02-01T01:29:51;4.30;99.90
15967;DHT22;15175;48.154;11.534;2023-02-01T01:32:18;4.40;99.90
15967;DHT22;15175;48.154;11.534;2023-02-01T01:34:45;4.40;99.90
15967;DHT22;15175;48.154;11.534;2023-02-01T01:37:14;4.40;99.90
15967;DHT22;15175;48.154;11.534;2023-02-01T01:39:41;4.40;99.90
15967;DHT22;15175;48.154;11.534;2023-02-01T01:42:10;4.40;99.90
15967;DHT22;15175;48.154;11.534;2023-02-01T01:44:59;4.40;99.90
15967;DHT22;15175;48.154;11.534;2023-02-01T01:47:32;4.30;99.90
15967;DHT22;15175;48.154;11.534;2023-02-01T01:50:01;4.40;99.90
15967;DHT22;15175;48.154;11.534;2023-02-01T01:52:31;4.40;99.90
15967;DHT22;15175;48.154;11.534;2023-02-01T01:54:59;4.30;99.90
15967;DHT22;15175;48.154;11.534;2023-02-01T01:57:31;4.30;99.90
15967;DHT22;15175;48.154;11.534;2023-02-01T02:00:03;4.30;99.90
15967;DHT22;15175;48.154;11.534;2023-02-01T02:02:41;4.30;99.90
15967;DHT22;15175;48.154;11.534;2023-02-01T02:05:09;4.30;99.90
15967;DHT22;15175;48.154;11.534;2023-02-01T02:07:41;4.30;99.90
15967;DHT22;15175;48.154;11.534;2023-02-01T02:10:11;4.30;99.90
15967;DHT22;15175;48.154;11.534;2023-02-01T02:12:39;4.20;99.90
15967;DHT22;15175;48.154;11.534;2023-02-01T02:15:08;4.20;99.90
15967;DHT22;15175;48.154;11.534;2023-02-01T02:17:40;4.20;99.90
15967;DHT22;15175;48.154;11.534;2023-02-01T02:20:30;4.20;99.90
15967;DHT22;15175;48.154;11.534;2023-02-01T02:23:20;4.20;99.90
15967;DHT22;15175;48.154;11.534;2023-02-01T02:29:17;4.10;99.90
15967;DHT22;15175;48.154;11.534;2023-02-01T02:32:09;4.10;99.90
15967;DHT22;15175;48.154;11.534;2023-02-01T02:34:47;4.10;99.90
15967;DHT22;15175;48.154;11.534;2023-02-01T02:37:24;4.10;99.90
15967;DHT22;15175;48.154;11.534;2023-02-01T02:40:00;4.10;99.90
15967;DHT22;15175;48.154;11.534;2023-02-01T02:42:54;4.10;99.90
15967;DHT22;15175;48.154;11.534;2023-02-01T02:45:44;4.10;99.90
15967;DHT22;15175;48.154;11.534;2023-02-01T02:48:40;4.10;99.90
15967;DHT22;15175;48.154;11.534;2023-02-01T02:51:14;4.10;99.90
15967;DHT22;15175;48.154;11.534;2023-02-01T02:54:04;4.10;99.90
15967;DHT22;15175;48.154;11.534;2023-02-01T02:56:50;4.10;99.90
15967;DHT22;15175;48.154;11.534;2023-02-01T02:59:35;4.10;99.90
15967;DHT22;15175;48.154;11.534;2023-02-01T03:02:21;4.10;99.90
15967;DHT22;15175;48.154;11.534;2023-02-01T03:05:07;4.10;99.90
15967;DHT22;15175;48.154;11.534;2023-02-01T03:07:55;4.10;99.90
15967;DHT22;15175;48.154;11.534;2023-02-01T03:10:29;4.10;99.90
15967;DHT22;15175;48.154;11.534;2023-02-01T03:13:02;4.10;99.90
15967;DHT22;15175;48.154;11.534;2023-02-01T03:15:33;4.10;99.90
15967;DHT22;15175;48.154;11.534;2023-02-01T03:18:05;4.20;99.90
15967;DHT22;15175;48.154;11.534;2023-02-01T03:20:33;4.10;99.90
15967;DHT22;15175;48.154;11.534;2023-02-01T03:23:03;4.20;99.90
15967;DHT22;15175;48.154;11.534;2023-02-01T03:25:33;4.20;99.90
15967;DHT22;15175;48.154;11.534;2023-02-01T03:28:02;4.20;99.90
15967;DHT22;15175;48.154;11.534;2023-02-01T03:30:34;4.20;99.90
15967;DHT22;15175;48.154;11.534;2023-02-01T03:33:07;4.20;99.90
15967;DHT22;15175;48.154;11.534;2023-02-01T03:35:42;4.20;99.90
15967;DHT22;15175;48.154;11.534;2023-02-01T03:38:18;4.20;99.90
15967;DHT22;15175;48.154;11.534;2023-02-01T03:40:51;4.20;99.90
15967;DHT22;15175;48.154;11.534;2023-02-01T03:43:20;4.20;99.90
15967;DHT22;15175;48.154;11.534;2023-02-01T03:45:50;4.20;99.90
15967;DHT22;15175;48.154;11.534;2023-02-01T03:48:20;4.30;99.90
15967;DHT22;15175;48.154;11.534;2023-02-01T03:50:52;4.30;99.90
15967;DHT22;15175;48.154;11.534;2023-02-01T03:53:23;4.30;99.90
15967;DHT22;15175;48.154;11.534;2023-02-01T03:55:54;4.30;99.90
15967;DHT22;15175;48.154;11.534;2023-02-01T03:58:22;4.30;99.90
15967;DHT22;15175;48.154;11.534;2023-02-01T04:00:51;4.30;99.90
15967;DHT22;15175;48.154;11.534;2023-02-01T04:03:18;4.30;99.90
15967;DHT22;15175;48.154;11.534;2023-02-01T04:05:47;4.30;99.90
15967;DHT22;15175;48.154;11.534;2023-02-01T04:08:15;4.30;99.90
15967;DHT22;15175;48.154;11.534;2023-02-01T04:10:43;4.30;99.90
15967;DHT22;15175;48.154;11.534;2023-02-01T04:13:11;4.30;99.90
15967;DHT22;15175;48.154;11.534;2023-02-01T04:15:39;4.30;99.90
15967;DHT22;15175;48.154;11.534;2023-02-01T04:18:06;4.30;99.90
15967;DHT22;15175;48.154;11.534;2023-02-01T04:20:33;4.30;99.90
15967;DHT22;15175;48.154;11.534;2023-02-01T04:23:00;4.30;99.90
15967;DHT22;15175;48.154;11.534;2023-02-01T04:25:28;4.30;99.90
15967;DHT22;15175;48.154;11.534;2023-02-01T04:27:56;4.30;99.90
15967;DHT22;15175;48.154;11.534;2023-02-01T04:30:24;4.30;99.90
15967;DHT22;15175;48.154;11.534;2023-02-01T04:32:52;4.30;99.90
15967;DHT22;15175;48.154;11.534;2023-02-01T04:35:19;4.30;99.90
15967;DHT22;15175;48.154;11.534;2023-02-01T04:37:46;4.40;99.90
15967;DHT22;15175;48.154;11.534;2023-02-01T04:40:13;4.40;99.90
15967;DHT22;15175;48.154;11.534;2023-02-01T04:42:40;4.40;99.90
15967;DHT22;15175;48.154;11.534;2023-02-01T04:45:10;4.40;99.90
15967;DHT22;15175;48.154;11.534;2023-02-01T04:47:37;4.30;99.90
15967;DHT22;15175;48.154;11.534;2023-02-01T04:50:05;4.30;99.90
15967;DHT22;15175;48.154;11.534;2023-02-01T04:52:34;4.40;99.90
15967;DHT22;15175;48.154;11.534;2023-02-01T04:55:01;4.40;99.90
15967;DHT22;15175;48.154;11.534;2023-02-01T04:57:28;4.40;99.90
15967;DHT22;15175;48.154;11.534;2023-02-01T04:59:55;4.40;99.90
15967;DHT22;15175;48.154;11.534;2023-02-01T05:02:24;4.40;99.90
15967;DHT22;15175;48.154;11.534;2023-02-01T05:04:51;4.30;99.90
15967;DHT22;15175;48.154;11.534;2023-02-01T05:07:19;4.40;99.90
15967;DHT22;15175;48.154;11.534;2023-02-01T05:09:46;4.30;99.90
15967;DHT22;15175;48.154;11.534;2023-02-01T05:12:13;4.30;99.90
15967;DHT22;15175;48.154;11.534;2023-02-01T05:14:58;4.30;99.90
15967;DHT22;15175;48.154;11.534;2023-02-01T05:17:26;4.40;99.90
15967;DHT22;15175;48.154;11.534;2023-02-01T05:19:53;4.40;99.90
15967;DHT22;15175;48.154;11.534;2023-02-01T05:22:20;4.40;99.90
15967;DHT22;15175;48.154;11.534;2023-02-01T05:24:47;4.40;99.90
15967;DHT22;15175;48.154;11.534;2023-02-01T05:27:14;4.40;99.90
15967;DHT22;15175;48.154;11.534;2023-02-01T05:29:42;4.30;99.90
15967;DHT22;15175;48.154;11.534;2023-02-01T05:32:10;4.30;99.90
15967;DHT22;15175;48.154;11.534;2023-02-01T05:34:38;4.40;99.90
15967;DHT22;15175;48.154;11.534;2023-02-01T05:37:05;4.40;99.90
15967;DHT22;15175;48.154;11.534;2023-02-01T05:39:32;4.40;99.90
15967;DHT22;15175;48.154;11.534;2023-02-01T05:41:59;4.40;99.90
15967;DHT22;15175;48.154;11.534;2023-02-01T05:44:26;4.40;99.90
15967;DHT22;15175;48.154;11.534;2023-02-01T05:46:53;4.30;99.90
15967;DHT22;15175;48.154;11.534;2023-02-01T05:49:20;4.40;99.90
15967;DHT22;15175;48.154;11.534;2023-02-01T05:51:49;4.40;99.90
15967;DHT22;15175;48.154;11.534;2023-02-01T05:54:16;4.40;99.90
15967;DHT22;15175;48.154;11.534;2023-02-01T05:56:43;4.40;99.90
15967;DHT22;15175;48.154;11.534;2023-02-01T05:59:10;4.40;99.90
15967;DHT22;15175;48.154;11.534;2023-02-01T06:01:37;4.40;99.90
15967;DHT22;15175;48.154;11.534;2023-02-01T06:04:04;4.40;99.90
15967;DHT22;15175;48.154;11.534;2023-02-01T06:06:31;4.40;99.90
15967;DHT22;15175;48.154;11.534;2023-02-01T06:09:00;4.40;99.90
15967;DHT22;15175;48.154;11.534;2023-02-01T06:11:27;4.40;99.90
15967;DHT22;15175;48.154;11.534;2023-02-01T06:13:54;4.40;99.90
15967;DHT22;15175;48.154;11.534;2023-02-01T06:16:22;4.40;99.90
15967;DHT22;15175;48.154;11.534;2023-02-01T06:18:49;4.40;99.90
15967;DHT22;15175;48.154;11.534;2023-02-01T06:21:16;4.50;99.90
15967;DHT22;15175;48.154;11.534;2023-02-01T06:23:49;4.40;99.90
15967;DHT22;15175;48.154;11.534;2023-02-01T06:26:17;4.50;99.90
15967;DHT22;15175;48.154;11.534;2023-02-01T06:28:45;4.50;99.90
15967;DHT22;15175;48.154;11.534;2023-02-01T06:31:12;4.40;99.90
15967;DHT22;15175;48.154;11.534;2023-02-01T06:33:39;4.50;99.90
15967;DHT22;15175;48.154;11.534;2023-02-01T06:36:09;4.40;99.90
15967;DHT22;15175;48.154;11.534;2023-02-01T06:38:37;4.50;99.90
15967;DHT22;15175;48.154;11.534;2023-02-01T06:41:05;4.50;99.90
15967;DHT22;15175;48.154;11.534;2023-02-01T06:43:33;4.50;99.90
15967;DHT22;15175;48.154;11.534;2023-02-01T06:46:02;4.50;99.90
15967;DHT22;15175;48.154;11.534;2023-02-01T06:48:29;4.50;99.90
15967;DHT22;15175;48.154;11.534;2023-02-01T06:50:57;4.50;99.90
15967;DHT22;15175;48.154;11.534;2023-02-01T06:53:24;4.50;99.90
15967;DHT22;15175;48.154;11.534;2023-02-01T06:55:52;4.50;99.90
15967;DHT22;15175;48.154;11.534;2023-02-01T06:58:19;4.50;99.90
15967;DHT22;15175;48.154;11.534;2023-02-01T07:00:48;4.50;99.90
15967;DHT22;15175;48.154;11.534;2023-02-01T07:03:16;4.50;99.90
15967;DHT22;15175;48.154;11.534;2023-02-01T07:05:43;4.50;99.90
15967;DHT22;15175;48.154;11.534;2023-02-01T07:08:10;4.50;99.90
15967;DHT22;15175;48.154;11.534;2023-02-01T07:10:37;4.50;99.90
15967;DHT22;15175;48.154;11.534;2023-02-01T07:13:04;4.50;99.90
15967;DHT22;15175;48.154;11.534;2023-02-01T07:15:32;4.50;99.90
15967;DHT22;15175;48.154;11.534;2023-02-01T07:18:00;4.50;99.90
15967;DHT22;15175;48.154;11.534;2023-02-01T07:20:27;4.50;99.90
15967;DHT22;15175;48.154;11.534;2023-02-01T07:22:55;4.50;99.90
15967;DHT22;15175;48.154;11.534;2023-02-01T07:25:22;4.60;99.90
15967;DHT22;15175;48.154;11.534;2023-02-01T07:27:50;4.60;99.90
15967;DHT22;15175;48.154;11.534;2023-02-01T07:30:17;4.60;99.90
15967;DHT22;15175;48.154;11.534;2023-02-01T07:32:44;4.60;99.90
15967;DHT22;15175;48.154;11.534;2023-02-01T07:35:13;4.60;99.90
15967;DHT22;15175;48.154;11.534;2023-02-01T07:37:40;4.60;99.90
15967;DHT22;15175;48.154;11.534;2023-02-01T07:40:09;4.60;99.90
15967;DHT22;15175;48.154;11.534;2023-02-01T07:42:36;4.70;99.90
15967;DHT22;15175;48.154;11.534;2023-02-01T07:45:04;4.70;99.90
15967;DHT22;15175;48.154;11.534;2023-02-01T07:47:32;4.70;99.90
15967;DHT22;15175;48.154;11.534;2023-02-01T07:49:59;4.70;99.90
15967;DHT22;15175;48.154;11.534;2023-02-01T07:52:29;4.70;99.90
15967;DHT22;15175;48.154;11.534;2023-02-01T07:54:56;4.70;99.90
15967;DHT22;15175;48.154;11.534;2023-02-01T07:57:23;4.70;99.90
15967;DHT22;15175;48.154;11.534;2023-02-01T07:59:50;4.70;99.90
15967;DHT22;15175;48.154;11.534;2023-02-01T08:02:38;4.70;99.90
15967;DHT22;15175;48.154;11.534;2023-02-01T08:05:06;4.80;99.90
15967;DHT22;15175;48.154;11.534;2023-02-01T08:07:34;4.70;99.90
15967;DHT22;15175;48.154;11.534;2023-02-01T08:10:02;4.70;99.90
15967;DHT22;15175;48.154;11.534;2023-02-01T08:12:31;4.80;99.90
15967;DHT22;15175;48.154;11.534;2023-02-01T08:14:58;4.80;99.90
15967;DHT22;15175;48.154;11.534;2023-02-01T08:17:25;4.80;99.90
15967;DHT22;15175;48.154;11.534;2023-02-01T08:19:54;4.80;99.90
15967;DHT22;15175;48.154;11.534;2023-02-01T08:22:21;4.80;99.90
15967;DHT22;15175;48.154;11.534;2023-02-01T08:24:49;4.80;99.90
15967;DHT22;15175;48.154;11.534;2023-02-01T08:27:17;4.90;99.90
15967;DHT22;15175;48.154;11.534;2023-02-01T08:29:44;4.90;99.90
15967;DHT22;15175;48.154;11.534;2023-02-01T08:32:11;4.90;99.90
15967;DHT22;15175;48.154;11.534;2023-02-01T08:34:38;4.90;99.90
15967;DHT22;15175;48.154;11.534;2023-02-01T08:37:05;5.00;99.90
15967;DHT22;15175;48.154;11.534;2023-02-01T08:39:32;5.00;99.90
15967;DHT22;15175;48.154;11.534;2023-02-01T08:42:01;5.00;99.90
15967;DHT22;15175;48.154;11.534;2023-02-01T08:44:45;5.00;99.90
15967;DHT22;15175;48.154;11.534;2023-02-01T08:47:12;5.00;99.90
15967;DHT22;15175;48.154;11.534;2023-02-01T08:49:39;5.10;99.90
15967;DHT22;15175;48.154;11.534;2023-02-01T08:52:06;5.10;99.90
15967;DHT22;15175;48.154;11.534;2023-02-01T08:54:33;5.10;99.90
15967;DHT22;15175;48.154;11.534;2023-02-01T08:57:02;5.20;99.90
15967;DHT22;15175;48.154;11.534;2023-02-01T08:59:29;5.20;99.90
15967;DHT22;15175;48.154;11.534;2023-02-01T09:01:56;5.20;99.90
15967;DHT22;15175;48.154;11.534;2023-02-01T09:04:23;5.20;99.90
15967;DHT22;15175;48.154;11.534;2023-02-01T09:06:51;5.20;99.90
15967;DHT22;15175;48.154;11.534;2023-02-01T09:09:18;5.30;99.90
15967;DHT22;15175;48.154;11.534;2023-02-01T09:11:45;5.30;99.90
15967;DHT22;15175;48.154;11.534;2023-02-01T09:14:13;5.30;99.90
15967;DHT22;15175;48.154;11.534;2023-02-01T09:16:40;5.30;99.90
15967;DHT22;15175;48.154;11.534;2023-02-01T09:19:07;5.30;99.90
15967;DHT22;15175;48.154;11.534;2023-02-01T09:21:34;5.40;99.90
15967;DHT22;15175;48.154;11.534;2023-02-01T09:24:02;5.40;99.90
15967;DHT22;15175;48.154;11.534;2023-02-01T09:26:29;5.40;99.90
15967;DHT22;15175;48.154;11.534;2023-02-01T09:28:56;5.40;99.90
15967;DHT22;15175;48.154;11.534;2023-02-01T09:31:25;5.50;99.90
15967;DHT22;15175;48.154;11.534;2023-02-01T09:33:52;5.50;99.90
15967;DHT22;15175;48.154;11.534;2023-02-01T09:36:19;5.50;99.90
15967;DHT22;15175;48.154;11.534;2023-02-01T09:38:46;5.50;99.90
15967;DHT22;15175;48.154;11.534;2023-02-01T09:41:26;5.50;99.90
15967;DHT22;15175;48.154;11.534;2023-02-01T09:44:02;5.60;99.90
15967;DHT22;15175;48.154;11.534;2023-02-01T09:46:35;5.60;99.90
15967;DHT22;15175;48.154;11.534;2023-02-01T09:49:05;5.60;99.90
15967;DHT22;15175;48.154;11.534;2023-02-01T09:51:37;5.60;99.90
15967;DHT22;15175;48.154;11.534;2023-02-01T09:54:09;5.70;99.90
15967;DHT22;15175;48.154;11.534;2023-02-01T09:56:41;5.70;99.90
15967;DHT22;15175;48.154;11.534;2023-02-01T09:59:29;5.70;99.90
15967;DHT22;15175;48.154;11.534;2023-02-01T10:02:02;5.70;99.90
15967;DHT22;15175;48.154;11.534;2023-02-01T10:04:29;5.70;99.90
15967;DHT22;15175;48.154;11.534;2023-02-01T10:07:10;5.80;99.90
15967;DHT22;15175;48.154;11.534;2023-02-01T10:09:52;5.70;99.90
15967;DHT22;15175;48.154;11.534;2023-02-01T10:15:28;5.80;99.90
15967;DHT22;15175;48.154;11.534;2023-02-01T10:18:11;5.80;99.90
15967;DHT22;15175;48.154;11.534;2023-02-01T10:20:52;5.80;99.90
15967;DHT22;15175;48.154;11.534;2023-02-01T10:23:37;5.80;99.90
15967;DHT22;15175;48.154;11.534;2023-02-01T10:26:18;5.80;99.90
15967;DHT22;15175;48.154;11.534;2023-02-01T10:28:49;5.80;99.90
15967;DHT22;15175;48.154;11.534;2023-02-01T10:31:17;5.70;99.90
15967;DHT22;15175;48.154;11.534;2023-02-01T10:33:48;5.70;99.90
15967;DHT22;15175;48.154;11.534;2023-02-01T10:36:21;5.80;99.90
15967;DHT22;15175;48.154;11.534;2023-02-01T10:38:49;5.80;99.90
15967;DHT22;15175;48.154;11.534;2023-02-01T10:41:18;5.80;99.90
15967;DHT22;15175;48.154;11.534;2023-02-01T10:43:49;5.70;99.90
15967;DHT22;15175;48.154;11.534;2023-02-01T10:46:18;5.80;99.90
15967;DHT22;15175;48.154;11.534;2023-02-01T10:48:48;5.70;99.90
15967;DHT22;15175;48.154;11.534;2023-02-01T10:51:21;5.70;99.90
15967;DHT22;15175;48.154;11.534;2023-02-01T10:53:52;5.80;99.90
15967;DHT22;15175;48.154;11.534;2023-02-01T10:56:23;5.80;99.90
15967;DHT22;15175;48.154;11.534;2023-02-01T10:58:50;5.80;99.90
15967;DHT22;15175;48.154;11.534;2023-02-01T11:01:20;5.80;99.90
15967;DHT22;15175;48.154;11.534;2023-02-01T11:03:54;5.70;99.90
15967;DHT22;15175;48.154;11.534;2023-02-01T11:06:28;5.70;99.90
15967;DHT22;15175;48.154;11.534;2023-02-01T11:08:57;5.70;99.90
15967;DHT22;15175;48.154;11.534;2023-02-01T11:11:25;5.80;99.90
15967;DHT22;15175;48.154;11.534;2023-02-01T11:13:54;5.80;99.90
15967;DHT22;15175;48.154;11.534;2023-02-01T11:16:23;5.80;99.90
15967;DHT22;15175;48.154;11.534;2023-02-01T11:18:58;5.80;99.90
15967;DHT22;15175;48.154;11.534;2023-02-01T11:21:25;5.80;99.90
15967;DHT22;15175;48.154;11.534;2023-02-01T11:23:52;5.80;99.90
15967;DHT22;15175;48.154;11.534;2023-02-01T11:26:24;5.80;99.90
15967;DHT22;15175;48.154;11.534;2023-02-01T11:28:56;5.80;99.90
15967;DHT22;15175;48.154;11.534;2023-02-01T11:31:25;5.80;99.90
15967;DHT22;15175;48.154;11.534;2023-02-01T11:33:57;5.70;99.90
15967;DHT22;15175;48.154;11.534;2023-02-01T11:36:27;5.70;99.90
15967;DHT22;15175;48.154;11.534;2023-02-01T11:39:26;5.70;99.90
15967;DHT22;15175;48.154;11.534;2023-02-01T11:41:58;5.70;99.90
15967;DHT22;15175;48.154;11.534;2023-02-01T11:44:31;5.70;99.90
15967;DHT22;15175;48.154;11.534;2023-02-01T11:47:24;5.70;99.90
15967;DHT22;15175;48.154;11.534;2023-02-01T11:49:54;5.60;99.90
15967;DHT22;15175;48.154;11.534;2023-02-01T11:52:42;5.60;99.90
15967;DHT22;15175;48.154;11.534;2023-02-01T11:58:11;5.60;99.90
15967;DHT22;15175;48.154;11.534;2023-02-01T12:00:57;5.60;99.90
15967;DHT22;15175;48.154;11.534;2023-02-01T12:03:39;5.60;99.90
15967;DHT22;15175;48.154;11.534;2023-02-01T12:06:18;5.60;99.90
15967;DHT22;15175;48.154;11.534;2023-02-01T12:09:08;5.60;99.90
15967;DHT22;15175;48.154;11.534;2023-02-01T12:11:46;5.60;99.90
15967;DHT22;15175;48.154;11.534;2023-02-01T12:14:28;5.60;99.90
15967;DHT22;15175;48.154;11.534;2023-02-01T12:17:18;5.60;99.90
15967;DHT22;15175;48.154;11.534;2023-02-01T12:20:06;5.60;99.90
15967;DHT22;15175;48.154;11.534;2023-02-01T12:22:47;5.60;99.90
15967;DHT22;15175;48.154;11.534;2023-02-01T12:25:30;5.60;99.90
15967;DHT22;15175;48.154;11.534;2023-02-01T12:28:27;5.50;99.90
15967;DHT22;15175;48.154;11.534;2023-02-01T12:34:09;5.50;99.90
15967;DHT22;15175;48.154;11.534;2023-02-01T12:36:46;5.50;99.90
15967;DHT22;15175;48.154;11.534;2023-02-01T12:39:22;5.40;99.90
15967;DHT22;15175;48.154;11.534;2023-02-01T12:41:56;5.40;99.90
15967;DHT22;15175;48.154;11.534;2023-02-01T12:44:35;5.40;99.90
15967;DHT22;15175;48.154;11.534;2023-02-01T12:47:09;5.40;99.90
15967;DHT22;15175;48.154;11.534;2023-02-01T12:49:46;5.40;99.90
15967;DHT22;15175;48.154;11.534;2023-02-01T12:52:18;5.40;99.90
15967;DHT22;15175;48.154;11.534;2023-02-01T12:54:52;5.40;99.90
15967;DHT22;15175;48.154;11.534;2023-02-01T12:57:26;5.40;99.90
15967;DHT22;15175;48.154;11.534;2023-02-01T12:59:59;5.40;99.90
15967;DHT22;15175;48.154;11.534;2023-02-01T13:02:33;5.40;99.90
15967;DHT22;15175;48.154;11.534;2023-02-01T13:05:21;5.40;99.90
15967;DHT22;15175;48.154;11.534;2023-02-01T13:07:56;5.40;99.90
15967;DHT22;15175;48.154;11.534;2023-02-01T13:10:32;5.40;99.90
15967;DHT22;15175;48.154;11.534;2023-02-01T13:13:07;5.40;99.90
15967;DHT22;15175;48.154;11.534;2023-02-01T13:15:40;5.50;99.90
15967;DHT22;15175;48.154;11.534;2023-02-01T13:18:13;5.50;99.90
15967;DHT22;15175;48.154;11.534;2023-02-01T13:20:47;5.50;99.90
15967;DHT22;15175;48.154;11.534;2023-02-01T13:23:22;5.50;99.90
15967;DHT22;15175;48.154;11.534;2023-02-01T13:25:52;5.50;99.90
15967;DHT22;15175;48.154;11.534;2023-02-01T13:28:27;5.50;99.90
15967;DHT22;15175;48.154;11.534;2023-02-01T13:33:55;5.50;99.90
15967;DHT22;15175;48.154;11.534;2023-02-01T13:36:45;5.50;99.90
15967;DHT22;15175;48.154;11.534;2023-02-01T13:39:42;5.50;99.90
15967;DHT22;15175;48.154;11.534;2023-02-01T13:42:17;5.50;99.90
15967;DHT22;15175;48.154;11.534;2023-02-01T13:44:47;5.50;99.90
15967;DHT22;15175;48.154;11.534;2023-02-01T13:47:23;5.50;99.90
15967;DHT22;15175;48.154;11.534;2023-02-01T13:49:52;5.50;99.90
15967;DHT22;15175;48.154;11.534;2023-02-01T13:52:26;5.50;99.90
15967;DHT22;15175;48.154;11.534;2023-02-01T13:55:28;5.50;99.90
15967;DHT22;15175;48.154;11.534;2023-02-01T13:58:04;5.50;99.90
15967;DHT22;15175;48.154;11.534;2023-02-01T14:00:33;5.50;99.90
15967;DHT22;15175;48.154;11.534;2023-02-01T14:03:21;5.50;99.90
15967;DHT22;15175;48.154;11.534;2023-02-01T14:06:13;5.50;99.90
15967;DHT22;15175;48.154;11.534;2023-02-01T14:08:45;5.50;99.90
15967;DHT22;15175;48.154;11.534;2023-02-01T14:11:39;5.50;99.90
15967;DHT22;15175;48.154;11.534;2023-02-01T14:17:35;5.50;99.90
15967;DHT22;15175;48.154;11.534;2023-02-01T14:23:22;5.50;99.90
15967;DHT22;15175;48.154;11.534;2023-02-01T14:26:20;5.50;99.90
15967;DHT22;15175;48.154;11.534;2023-02-01T14:28:58;5.40;99.90
15967;DHT22;15175;48.154;11.534;2023-02-01T14:31:43;5.50;99.90
15967;DHT22;15175;48.154;11.534;2023-02-01T14:34:15;5.40;99.90
15967;DHT22;15175;48.154;11.534;2023-02-01T14:36:47;5.40;99.90
15967;DHT22;15175;48.154;11.534;2023-02-01T14:39:49;5.40;99.90
15967;DHT22;15175;48.154;11.534;2023-02-01T14:42:29;5.40;99.90
15967;DHT22;15175;48.154;11.534;2023-02-01T14:51:01;5.40;99.90
15967;DHT22;15175;48.154;11.534;2023-02-01T14:53:33;5.40;99.90
15967;DHT22;15175;48.154;11.534;2023-02-01T14:56:06;5.50;99.90
15967;DHT22;15175;48.154;11.534;2023-02-01T14:58:40;5.40;99.90
15967;DHT22;15175;48.154;11.534;2023-02-01T15:01:18;5.40;99.90
15967;DHT22;15175;48.154;11.534;2023-02-01T15:04:00;5.40;99.90
15967;DHT22;15175;48.154;11.534;2023-02-01T15:06:33;5.40;99.90
15967;DHT22;15175;48.154;11.534;2023-02-01T15:09:07;5.40;99.90
15967;DHT22;15175;48.154;11.534;2023-02-01T15:11:53;5.40;99.90
15967;DHT22;15175;48.154;11.534;2023-02-01T15:14:20;5.40;99.90
15967;DHT22;15175;48.154;11.534;2023-02-01T15:16:48;5.40;99.90
15967;DHT22;15175;48.154;11.534;2023-02-01T15:19:20;5.40;99.90
15967;DHT22;15175;48.154;11.534;2023-02-01T15:21:51;5.40;99.90
15967;DHT22;15175;48.154;11.534;2023-02-01T15:24:21;5.40;99.90
15967;DHT22;15175;48.154;11.534;2023-02-01T15:26:49;5.40;99.90
15967;DHT22;15175;48.154;11.534;2023-02-01T15:29:17;5.40;99.90
15967;DHT22;15175;48.154;11.534;2023-02-01T15:31:46;5.40;99.90
15967;DHT22;15175;48.154;11.534;2023-02-01T15:34:14;5.40;99.90
15967;DHT22;15175;48.154;11.534;2023-02-01T15:36:42;5.30;99.90
15967;DHT22;15175;48.154;11.534;2023-02-01T15:39:18;5.30;99.90
15967;DHT22;15175;48.154;11.534;2023-02-01T15:41:54;5.30;99.90
15967;DHT22;15175;48.154;11.534;2023-02-01T15:44:32;5.30;99.90
15967;DHT22;15175;48.154;11.534;2023-02-01T15:47:06;5.30;99.90
15967;DHT22;15175;48.154;11.534;2023-02-01T15:49:38;5.20;99.90
15967;DHT22;15175;48.154;11.534;2023-02-01T15:52:18;5.20;99.90
15967;DHT22;15175;48.154;11.534;2023-02-01T15:54:49;5.20;99.90
15967;DHT22;15175;48.154;11.534;2023-02-01T15:57:20;5.20;99.90
15967;DHT22;15175;48.154;11.534;2023-02-01T15:59:56;5.20;99.90
15967;DHT22;15175;48.154;11.534;2023-02-01T16:02:26;5.10;99.90
15967;DHT22;15175;48.154;11.534;2023-02-01T16:04:54;5.10;99.90
15967;DHT22;15175;48.154;11.534;2023-02-01T16:07:26;5.10;99.90
15967;DHT22;15175;48.154;11.534;2023-02-01T16:09:56;5.10;99.90
15967;DHT22;15175;48.154;11.534;2023-02-01T16:12:29;5.10;99.90
15967;DHT22;15175;48.154;11.534;2023-02-01T16:14:57;5.00;99.90
15967;DHT22;15175;48.154;11.534;2023-02-01T16:17:24;5.00;99.90
15967;DHT22;15175;48.154;11.534;2023-02-01T16:19:51;5.00;99.90
15967;DHT22;15175;48.154;11.534;2023-02-01T16:22:18;5.00;99.90
15967;DHT22;15175;48.154;11.534;2023-02-01T16:24:46;5.00;99.90
15967;DHT22;15175;48.154;11.534;2023-02-01T16:27:14;5.00;99.90